createdAt,value
2023-11-07T00:00:33.138Z,6.47
2023-11-07T00:01:35.219Z,6.49
2023-11-07T00:02:37.435Z,6.51
2023-11-07T00:03:39.493Z,6.48
2023-11-07T00:04:43.056Z,6.47
2023-11-07T00:05:45.151Z,6.47
2023-11-07T00:06:47.164Z,6.46
2023-11-07T00:07:49.547Z,6.46
2023-11-07T00:08:52.759Z,6.48
2023-11-07T00:09:56.178Z,6.48
2023-11-07T00:10:58.154Z,6.48
2023-11-07T00:12:00.661Z,6.47
2023-11-07T00:13:02.707Z,6.46
2023-11-07T00:14:04.799Z,6.46
2023-11-07T00:15:07.553Z,6.45
2023-11-07T00:16:11.452Z,6.45
2023-11-07T00:17:13.661Z,6.45
2023-11-07T00:18:15.826Z,6.45
2023-11-07T00:19:18.320Z,6.44
2023-11-07T00:20:20.744Z,6.42
2023-11-07T00:21:23.800Z,6.44
2023-11-07T00:22:25.985Z,6.41
2023-11-07T00:23:27.973Z,6.45
2023-11-07T00:24:30.193Z,6.45
2023-11-07T00:25:33.280Z,6.44
2023-11-07T00:26:35.380Z,6.45
2023-11-07T00:27:37.413Z,6.45
2023-11-07T00:28:39.587Z,6.45
2023-11-07T00:29:41.709Z,6.47
2023-11-07T00:30:43.975Z,6.49
2023-11-07T00:31:46.028Z,6.48
2023-11-07T00:32:48.371Z,6.49
2023-11-07T00:33:50.703Z,6.49
2023-11-07T00:34:52.903Z,6.49
2023-11-07T00:35:54.938Z,6.50
2023-11-07T00:36:57.414Z,6.49
2023-11-07T00:38:00.368Z,6.50
2023-11-07T00:39:03.050Z,6.51
2023-11-07T00:40:08.061Z,6.51
2023-11-07T00:41:11.278Z,6.53
2023-11-07T00:42:13.575Z,6.53
2023-11-07T00:43:15.812Z,6.53
2023-11-07T00:44:19.575Z,6.52
2023-11-07T00:45:21.784Z,6.51
2023-11-07T00:46:23.758Z,6.51
2023-11-07T00:47:26.064Z,6.51
2023-11-07T00:48:28.805Z,6.51
2023-11-07T00:49:30.942Z,6.51
2023-11-07T00:50:33.731Z,6.49
2023-11-07T00:51:36.839Z,6.47
2023-11-07T00:52:39.837Z,6.48
2023-11-07T00:53:41.998Z,6.48
2023-11-07T00:54:45.366Z,6.46
2023-11-07T00:55:47.592Z,6.44
2023-11-07T00:56:49.758Z,6.43
2023-11-07T00:57:51.863Z,6.43
2023-11-07T01:00:17.665Z,6.43
2023-11-07T01:01:19.759Z,6.42
2023-11-07T01:02:21.961Z,6.41
2023-11-07T01:03:24.187Z,6.38
2023-11-07T01:04:26.310Z,6.39
2023-11-07T01:05:28.567Z,6.38
2023-11-07T01:06:30.718Z,6.38
2023-11-07T01:07:32.871Z,6.36
2023-11-07T01:08:34.971Z,6.37
2023-11-07T01:09:37.110Z,6.35
2023-11-07T01:10:39.009Z,6.35
2023-11-07T01:11:41.580Z,6.34
2023-11-07T01:12:43.628Z,6.37
2023-11-07T01:13:45.885Z,6.36
2023-11-07T01:14:48.047Z,6.39
2023-11-07T01:15:50.228Z,6.39
2023-11-07T01:16:52.811Z,6.38
2023-11-07T01:17:55.089Z,6.40
2023-11-07T01:18:57.265Z,6.39
2023-11-07T01:19:59.586Z,6.39
2023-11-07T01:21:01.590Z,6.42
2023-11-07T01:22:03.996Z,6.42
2023-11-07T01:23:06.007Z,6.44
2023-11-07T01:24:09.107Z,6.47
2023-11-07T01:25:11.758Z,6.46
2023-11-07T01:26:14.033Z,6.48
2023-11-07T01:27:16.059Z,6.46
2023-11-07T01:28:21.984Z,6.48
2023-11-07T01:29:24.091Z,6.46
2023-11-07T01:30:26.231Z,6.45
2023-11-07T01:31:28.199Z,6.45
2023-11-07T01:32:30.323Z,6.45
2023-11-07T01:33:32.626Z,6.45
2023-11-07T01:34:34.883Z,6.43
2023-11-07T01:35:36.932Z,6.46
2023-11-07T01:36:38.947Z,6.47
2023-11-07T01:37:40.897Z,6.47
2023-11-07T01:38:43.066Z,6.46
2023-11-07T01:39:45.134Z,6.47
2023-11-07T01:40:47.156Z,6.46
2023-11-07T01:41:49.228Z,6.46
2023-11-07T01:42:51.441Z,6.42
2023-11-07T01:43:53.506Z,6.42
2023-11-07T01:44:55.852Z,6.42
2023-11-07T01:46:01.762Z,6.40
2023-11-07T01:47:04.061Z,6.37
2023-11-07T01:48:09.738Z,6.38
2023-11-07T01:49:12.383Z,6.36
2023-11-07T01:50:17.939Z,6.35
2023-11-07T01:51:20.146Z,6.33
2023-11-07T01:52:22.625Z,6.31
2023-11-07T01:53:25.525Z,6.31
2023-11-07T01:54:29.038Z,6.31
2023-11-07T01:55:31.632Z,6.30
2023-11-07T01:56:33.694Z,6.28
2023-11-07T01:57:36.768Z,6.26
2023-11-07T01:58:38.869Z,6.25
2023-11-07T01:59:41.920Z,6.23
2023-11-07T02:00:45.398Z,6.21
2023-11-07T02:01:49.339Z,6.21
2023-11-07T02:02:51.683Z,6.17
2023-11-07T02:03:54.903Z,6.17
2023-11-07T02:04:57.757Z,6.17
2023-11-07T02:06:00.280Z,6.16
2023-11-07T02:07:02.418Z,6.14
2023-11-07T02:08:06.873Z,6.17
2023-11-07T02:09:09.796Z,6.18
2023-11-07T02:10:12.074Z,6.18
2023-11-07T02:11:14.159Z,6.18
2023-11-07T02:12:16.438Z,6.16
2023-11-07T02:13:18.926Z,6.15
2023-11-07T02:14:31.319Z,6.13
2023-11-07T02:15:36.402Z,6.13
2023-11-07T02:16:38.686Z,6.09
2023-11-07T02:17:40.806Z,6.08
2023-11-07T02:18:43.388Z,6.07
2023-11-07T02:19:45.495Z,6.07
2023-11-07T02:20:47.643Z,6.07
2023-11-07T02:21:53.084Z,6.07
2023-11-07T02:23:03.944Z,6.06
2023-11-07T02:24:08.182Z,6.05
2023-11-07T02:25:14.633Z,6.04
2023-11-07T02:26:16.973Z,6.02
2023-11-07T02:27:20.237Z,6.00
2023-11-07T02:28:22.361Z,6.03
2023-11-07T02:29:24.548Z,6.02
2023-11-07T02:30:26.792Z,5.99
2023-11-07T02:31:28.900Z,5.97
2023-11-07T02:32:31.524Z,5.96
2023-11-07T02:33:34.441Z,5.94
2023-11-07T02:34:37.278Z,5.94
2023-11-07T02:35:39.652Z,5.95
2023-11-07T02:36:42.011Z,5.95
2023-11-07T02:37:48.208Z,5.94
2023-11-07T02:38:50.389Z,5.92
2023-11-07T02:39:52.661Z,5.92
2023-11-07T02:40:54.625Z,5.90
2023-11-07T02:41:56.998Z,5.92
2023-11-07T02:43:01.688Z,5.89
2023-11-07T02:44:04.031Z,5.89
2023-11-07T02:45:07.100Z,5.89
2023-11-07T02:46:10.903Z,5.89
2023-11-07T02:47:12.963Z,5.90
2023-11-07T02:48:15.901Z,5.87
2023-11-07T02:49:18.101Z,5.87
2023-11-07T02:50:20.367Z,5.86
2023-11-07T02:51:24.216Z,5.86
2023-11-07T02:52:26.535Z,5.85
2023-11-07T02:53:28.556Z,5.85
2023-11-07T02:54:30.594Z,5.84
2023-11-07T02:55:33.292Z,5.82
2023-11-07T02:56:35.781Z,5.82
2023-11-07T02:57:37.892Z,5.82
2023-11-07T02:58:40.094Z,5.83
2023-11-07T02:59:45.562Z,5.83
2023-11-07T03:00:47.687Z,5.85
2023-11-07T03:01:52.751Z,5.85
2023-11-07T03:02:54.989Z,5.85
2023-11-07T03:03:59.382Z,5.86
2023-11-07T03:05:01.454Z,5.82
2023-11-07T03:06:03.811Z,5.85
2023-11-07T03:07:06.142Z,5.81
2023-11-07T03:08:09.064Z,5.80
2023-11-07T03:09:11.745Z,5.79
2023-11-07T03:10:14.543Z,5.78
2023-11-07T03:11:16.568Z,5.77
2023-11-07T03:12:18.799Z,5.75
2023-11-07T03:13:21.686Z,5.76
2023-11-07T03:14:23.679Z,5.76
2023-11-07T03:15:25.852Z,5.77
2023-11-07T03:16:28.025Z,5.76
2023-11-07T03:17:30.333Z,5.74
2023-11-07T03:18:32.672Z,5.75
2023-11-07T03:19:35.091Z,5.77
2023-11-07T03:20:37.629Z,5.79
2023-11-07T03:21:41.432Z,5.82
2023-11-07T03:22:43.778Z,5.81
2023-11-07T03:23:46.493Z,5.83
2023-11-07T03:24:49.742Z,5.83
2023-11-07T03:25:53.994Z,5.83
2023-11-07T03:26:55.807Z,5.86
2023-11-07T03:27:58.551Z,5.85
2023-11-07T03:29:00.549Z,5.87
2023-11-07T03:30:02.611Z,5.87
2023-11-07T03:31:07.397Z,5.91
2023-11-07T03:32:09.497Z,5.90
2023-11-07T03:33:11.709Z,5.91
2023-11-07T03:34:13.793Z,5.92
2023-11-07T03:35:15.932Z,5.93
2023-11-07T03:36:17.963Z,5.93
2023-11-07T03:37:20.058Z,5.96
2023-11-07T03:38:22.014Z,5.94
2023-11-07T03:39:24.025Z,5.96
2023-11-07T03:40:26.104Z,5.96
2023-11-07T03:41:29.211Z,5.95
2023-11-07T03:42:31.216Z,5.97
2023-11-07T03:43:35.148Z,5.97
2023-11-07T03:44:38.059Z,5.97
2023-11-07T03:45:40.170Z,5.97
2023-11-07T03:46:42.742Z,5.95
2023-11-07T03:47:45.087Z,5.97
2023-11-07T03:48:47.524Z,5.97
2023-11-07T03:49:49.598Z,5.97
2023-11-07T03:50:54.774Z,5.98
2023-11-07T03:51:56.851Z,5.98
2023-11-07T03:52:58.840Z,5.99
2023-11-07T03:54:01.035Z,6.02
2023-11-07T03:55:04.613Z,6.00
2023-11-07T03:56:07.521Z,6.00
2023-11-07T03:57:09.556Z,5.99
2023-11-07T03:58:11.707Z,5.98
2023-11-07T03:59:13.732Z,5.99
2023-11-07T04:00:16.207Z,5.97
2023-11-07T04:01:18.480Z,5.99
2023-11-07T04:02:20.744Z,5.99
2023-11-07T04:03:23.604Z,5.97
2023-11-07T04:04:25.804Z,5.96
2023-11-07T04:05:29.588Z,5.94
2023-11-07T04:06:32.072Z,6.00
2023-11-07T04:07:34.198Z,5.96
2023-11-07T04:08:36.367Z,5.95
2023-11-07T04:09:38.933Z,5.93
2023-11-07T04:10:41.026Z,5.93
2023-11-07T04:11:43.580Z,5.92
2023-11-07T04:12:45.753Z,5.91
2023-11-07T04:13:49.107Z,5.88
2023-11-07T04:14:51.889Z,5.86
2023-11-07T04:15:57.629Z,5.86
2023-11-07T04:17:00.946Z,5.84
2023-11-07T04:18:05.376Z,5.82
2023-11-07T04:19:07.868Z,5.82
2023-11-07T04:20:13.804Z,5.82
2023-11-07T04:21:15.996Z,5.83
2023-11-07T04:22:17.979Z,5.83
2023-11-07T04:23:21.187Z,5.84
2023-11-07T04:24:23.474Z,5.81
2023-11-07T04:25:26.011Z,5.82
2023-11-07T04:26:28.639Z,5.82
2023-11-07T04:27:30.951Z,5.83
2023-11-07T04:28:32.958Z,5.81
2023-11-07T04:29:35.028Z,5.84
2023-11-07T04:30:37.161Z,5.83
2023-11-07T04:31:39.941Z,5.83
2023-11-07T04:32:42.236Z,5.83
2023-11-07T04:33:44.606Z,5.82
2023-11-07T04:34:49.025Z,5.85
2023-11-07T04:35:51.069Z,5.85
2023-11-07T04:36:56.309Z,5.85
2023-11-07T04:37:58.703Z,5.87
2023-11-07T04:39:00.836Z,5.87
2023-11-07T04:40:04.071Z,5.87
2023-11-07T04:41:06.381Z,5.87
2023-11-07T04:42:08.750Z,5.86
2023-11-07T04:43:10.735Z,5.88
2023-11-07T04:44:12.808Z,5.87
2023-11-07T04:45:14.998Z,5.87
2023-11-07T04:46:17.373Z,5.87
2023-11-07T04:47:20.484Z,5.90
2023-11-07T04:48:24.209Z,5.89
2023-11-07T04:49:26.383Z,5.89
2023-11-07T04:50:28.705Z,5.90
2023-11-07T04:51:30.700Z,5.90
2023-11-07T04:52:35.096Z,5.92
2023-11-07T04:53:39.137Z,5.91
2023-11-07T04:54:41.236Z,5.91
2023-11-07T04:55:45.339Z,5.89
2023-11-07T04:56:47.530Z,5.89
2023-11-07T04:57:51.413Z,5.89
2023-11-07T04:58:57.509Z,5.89
2023-11-07T05:00:01.204Z,5.89
2023-11-07T05:01:09.307Z,5.90
2023-11-07T05:02:11.485Z,5.90
2023-11-07T05:03:13.759Z,5.87
2023-11-07T05:04:16.309Z,5.88
2023-11-07T05:05:19.144Z,5.86
2023-11-07T05:06:21.562Z,5.87
2023-11-07T05:07:23.695Z,5.87
2023-11-07T05:08:25.636Z,5.86
2023-11-07T05:09:28.339Z,5.87
2023-11-07T05:10:31.145Z,5.88
2023-11-07T05:11:33.598Z,5.88
2023-11-07T05:12:36.263Z,5.88
2023-11-07T05:13:39.401Z,5.85
2023-11-07T05:14:41.479Z,5.85
2023-11-07T05:15:44.296Z,5.84
2023-11-07T05:16:46.230Z,5.81
2023-11-07T05:17:49.454Z,5.81
2023-11-07T05:18:52.347Z,5.79
2023-11-07T05:19:54.612Z,5.80
2023-11-07T05:20:56.627Z,5.81
2023-11-07T05:21:59.080Z,5.80
2023-11-07T05:23:00.989Z,5.78
2023-11-07T05:24:05.492Z,5.78
2023-11-07T05:25:08.611Z,5.77
2023-11-07T05:26:11.513Z,5.78
2023-11-07T05:27:13.518Z,5.77
2023-11-07T05:28:15.877Z,5.76
2023-11-07T05:29:17.984Z,5.76
2023-11-07T05:30:20.065Z,5.72
2023-11-07T05:31:22.354Z,5.71
2023-11-07T05:32:24.428Z,5.70
2023-11-07T05:33:26.784Z,5.73
2023-11-07T05:34:29.912Z,5.72
2023-11-07T05:35:32.117Z,5.72
2023-11-07T05:36:35.312Z,5.73
2023-11-07T05:37:37.506Z,5.74
2023-11-07T05:38:40.031Z,5.72
2023-11-07T05:39:45.665Z,5.70
2023-11-07T05:40:48.480Z,5.67
2023-11-07T05:41:51.309Z,5.66
2023-11-07T05:42:53.623Z,5.65
2023-11-07T05:43:55.548Z,5.65
2023-11-07T05:44:59.349Z,5.62
2023-11-07T05:46:02.032Z,5.61
2023-11-07T05:47:05.470Z,5.61
2023-11-07T05:48:07.583Z,5.60
2023-11-07T05:49:10.079Z,5.60
2023-11-07T05:50:13.226Z,5.59
2023-11-07T05:51:15.506Z,5.57
2023-11-07T05:52:17.831Z,5.56
2023-11-07T05:53:19.854Z,5.57
2023-11-07T05:54:21.997Z,5.55
2023-11-07T05:55:24.064Z,5.57
2023-11-07T05:56:26.386Z,5.54
2023-11-07T05:57:28.610Z,5.57
2023-11-07T05:58:30.886Z,5.56
2023-11-07T05:59:32.963Z,5.56
2023-11-07T06:00:35.111Z,5.57
2023-11-07T06:01:37.314Z,5.55
2023-11-07T06:02:39.599Z,5.54
2023-11-07T06:03:42.006Z,5.58
2023-11-07T06:04:45.126Z,5.58
2023-11-07T06:05:47.396Z,5.57
2023-11-07T06:06:49.461Z,5.58
2023-11-07T06:07:56.727Z,5.60
2023-11-07T06:08:59.218Z,5.57
2023-11-07T06:10:02.380Z,5.58
2023-11-07T06:11:05.811Z,5.58
2023-11-07T06:12:10.800Z,5.59
2023-11-07T06:13:14.371Z,5.61
2023-11-07T06:14:17.683Z,5.60
2023-11-07T06:15:20.737Z,5.59
2023-11-07T06:16:22.929Z,5.59
2023-11-07T06:17:24.945Z,5.60
2023-11-07T06:18:27.332Z,5.60
2023-11-07T06:19:30.165Z,5.61
2023-11-07T06:20:32.241Z,5.62
2023-11-07T06:21:34.470Z,5.63
2023-11-07T06:22:38.233Z,5.61
2023-11-07T06:23:40.262Z,5.62
2023-11-07T06:24:43.381Z,5.65
2023-11-07T06:25:46.279Z,5.61
2023-11-07T06:26:48.591Z,5.64
2023-11-07T06:27:52.488Z,5.64
2023-11-07T06:28:55.274Z,5.64
2023-11-07T06:29:59.986Z,5.64
2023-11-07T06:31:02.193Z,5.65
2023-11-07T06:32:05.014Z,5.66
2023-11-07T06:33:07.093Z,5.67
2023-11-07T06:34:12.023Z,5.66
2023-11-07T06:35:16.087Z,5.65
2023-11-07T06:36:18.244Z,5.65
2023-11-07T06:37:20.523Z,5.66
2023-11-07T06:38:27.001Z,5.66
2023-11-07T06:39:29.636Z,5.66
2023-11-07T06:40:31.788Z,5.64
2023-11-07T06:41:34.068Z,5.66
2023-11-07T06:42:36.036Z,5.65
2023-11-07T06:43:39.143Z,5.66
2023-11-07T06:44:42.296Z,5.65
2023-11-07T06:45:44.453Z,5.64
2023-11-07T06:46:46.503Z,5.63
2023-11-07T06:47:49.238Z,5.64
2023-11-07T06:48:53.316Z,5.63
2023-11-07T06:49:56.496Z,5.63
2023-11-07T06:50:58.968Z,5.63
2023-11-07T06:52:01.129Z,5.64
2023-11-07T06:53:03.264Z,5.61
2023-11-07T06:54:05.997Z,5.59
2023-11-07T06:55:13.184Z,5.60
2023-11-07T06:56:15.639Z,5.59
2023-11-07T06:57:17.893Z,5.60
2023-11-07T06:58:20.155Z,5.57
2023-11-07T06:59:22.174Z,5.58
2023-11-07T07:00:27.078Z,5.58
2023-11-07T07:01:29.786Z,5.58
2023-11-07T07:02:31.908Z,5.59
2023-11-07T07:03:34.929Z,5.61
2023-11-07T07:04:36.956Z,5.61
2023-11-07T07:05:38.951Z,5.61
2023-11-07T07:06:41.873Z,5.61
2023-11-07T07:07:43.926Z,5.61
2023-11-07T07:08:46.097Z,5.60
2023-11-07T07:09:48.075Z,5.59
2023-11-07T07:10:50.910Z,5.61
2023-11-07T07:11:53.724Z,5.60
2023-11-07T07:12:55.740Z,5.59
2023-11-07T07:13:58.992Z,5.61
2023-11-07T07:15:01.206Z,5.59
2023-11-07T07:16:04.898Z,5.60
2023-11-07T07:17:08.765Z,5.61
2023-11-07T07:18:11.787Z,5.63
2023-11-07T07:19:19.119Z,5.62
2023-11-07T07:20:21.350Z,5.61
2023-11-07T07:21:23.534Z,5.62
2023-11-07T07:22:29.117Z,5.63
2023-11-07T07:23:34.211Z,5.60
2023-11-07T07:24:36.538Z,5.59
2023-11-07T07:25:39.084Z,5.60
2023-11-07T07:26:42.641Z,5.63
2023-11-07T07:27:48.610Z,5.63
2023-11-07T07:28:53.849Z,5.61
2023-11-07T07:29:58.449Z,5.61
2023-11-07T07:31:01.218Z,5.62
2023-11-07T07:32:04.608Z,5.61
2023-11-07T07:33:08.019Z,5.62
2023-11-07T07:34:11.208Z,5.62
2023-11-07T07:35:16.652Z,5.62
2023-11-07T07:36:18.945Z,5.61
2023-11-07T07:37:22.280Z,5.58
2023-11-07T07:38:26.264Z,5.59
2023-11-07T07:39:32.091Z,5.61
2023-11-07T07:40:35.080Z,5.60
2023-11-07T07:41:38.062Z,5.59
2023-11-07T07:42:40.125Z,5.61
2023-11-07T07:43:42.120Z,5.60
2023-11-07T07:44:45.267Z,5.57
2023-11-07T07:45:47.370Z,5.56
2023-11-07T07:46:52.428Z,5.57
2023-11-07T07:47:54.856Z,5.58
2023-11-07T07:48:58.108Z,5.57
2023-11-07T07:50:00.493Z,5.58
2023-11-07T07:51:07.907Z,5.58
2023-11-07T07:52:10.636Z,5.58
2023-11-07T07:53:16.615Z,5.59
2023-11-07T07:54:36.348Z,5.58
2023-11-07T07:55:46.148Z,5.61
2023-11-07T07:56:49.647Z,5.61
2023-11-07T07:57:51.720Z,5.63
2023-11-07T07:58:53.699Z,5.62
2023-11-07T07:59:57.706Z,5.59
2023-11-07T08:00:59.879Z,5.61
2023-11-07T08:02:02.765Z,5.62
2023-11-07T08:03:10.292Z,5.62
2023-11-07T08:04:13.860Z,5.59
2023-11-07T08:05:18.730Z,5.61
2023-11-07T08:06:21.540Z,5.62
2023-11-07T08:07:23.542Z,5.62
2023-11-07T08:08:25.604Z,5.61
2023-11-07T08:09:27.874Z,5.62
2023-11-07T08:10:30.063Z,5.62
2023-11-07T08:11:31.998Z,5.64
2023-11-07T08:12:37.044Z,5.65
2023-11-07T08:13:39.079Z,5.65
2023-11-07T08:14:42.488Z,5.66
2023-11-07T08:15:45.442Z,5.66
2023-11-07T08:16:47.691Z,5.65
2023-11-07T08:17:51.936Z,5.66
2023-11-07T08:18:55.071Z,5.65
2023-11-07T08:19:57.105Z,5.66
2023-11-07T08:20:59.216Z,5.67
2023-11-07T08:22:02.108Z,5.67
2023-11-07T08:23:06.332Z,5.68
2023-11-07T08:24:09.527Z,5.68
2023-11-07T08:25:12.161Z,5.69
2023-11-07T08:26:15.093Z,5.68
2023-11-07T08:27:17.422Z,5.69
2023-11-07T08:28:19.434Z,5.70
2023-11-07T08:29:22.422Z,5.65
2023-11-07T08:30:25.032Z,5.67
2023-11-07T08:31:27.626Z,5.69
2023-11-07T08:32:31.455Z,5.66
2023-11-07T08:33:33.717Z,5.70
2023-11-07T08:34:35.809Z,5.69
2023-11-07T08:35:38.156Z,5.66
2023-11-07T08:36:48.299Z,5.65
2023-11-07T08:37:57.565Z,5.64
2023-11-07T08:38:59.489Z,5.66
2023-11-07T08:40:02.325Z,5.65
2023-11-07T08:41:05.182Z,5.64
2023-11-07T08:42:07.503Z,5.62
2023-11-07T08:43:10.631Z,5.63
2023-11-07T08:44:12.750Z,5.63
2023-11-07T08:45:22.917Z,5.65
2023-11-07T08:46:26.199Z,5.68
2023-11-07T08:47:30.122Z,5.65
2023-11-07T08:48:32.454Z,5.65
2023-11-07T08:49:35.768Z,5.65
2023-11-07T08:50:38.767Z,5.66
2023-11-07T08:51:40.700Z,5.63
2023-11-07T08:52:43.190Z,5.64
2023-11-07T08:53:45.315Z,5.63
2023-11-07T08:54:47.480Z,5.65
2023-11-07T08:55:51.601Z,5.65
2023-11-07T08:56:53.670Z,5.65
2023-11-07T08:57:55.786Z,5.65
2023-11-07T08:58:57.876Z,5.64
2023-11-07T09:00:00.373Z,5.63
2023-11-07T09:01:03.039Z,5.62
2023-11-07T09:02:05.148Z,5.60
2023-11-07T09:03:10.196Z,5.62
2023-11-07T09:04:12.324Z,5.63
2023-11-07T09:05:14.726Z,5.63
2023-11-07T09:06:16.860Z,5.63
2023-11-07T09:07:20.485Z,5.65
2023-11-07T09:08:22.447Z,5.63
2023-11-07T09:09:25.046Z,5.64
2023-11-07T09:10:27.241Z,5.65
2023-11-07T09:11:29.421Z,5.67
2023-11-07T09:12:31.722Z,5.67
2023-11-07T09:13:35.124Z,5.67
2023-11-07T09:14:37.394Z,5.66
2023-11-07T09:15:40.916Z,5.66
2023-11-07T09:16:43.148Z,5.69
2023-11-07T09:17:45.327Z,5.69
2023-11-07T09:18:48.055Z,5.67
2023-11-07T09:19:50.174Z,5.67
2023-11-07T09:20:52.428Z,5.68
2023-11-07T09:21:54.641Z,5.68
2023-11-07T09:22:56.651Z,5.68
2023-11-07T09:23:59.225Z,5.69
2023-11-07T09:25:01.242Z,5.70
2023-11-07T09:26:04.552Z,5.71
2023-11-07T09:27:09.362Z,5.69
2023-11-07T09:28:11.834Z,5.71
2023-11-07T09:29:13.822Z,5.70
2023-11-07T09:30:16.512Z,5.71
2023-11-07T09:31:19.943Z,5.68
2023-11-07T09:32:22.025Z,5.69
2023-11-07T09:33:24.241Z,5.68
2023-11-07T09:34:26.643Z,5.69
2023-11-07T09:35:28.662Z,5.68
2023-11-07T09:36:31.719Z,5.68
2023-11-07T09:37:43.730Z,5.68
2023-11-07T09:38:49.704Z,5.68
2023-11-07T09:39:55.427Z,5.68
2023-11-07T09:41:00.567Z,5.70
2023-11-07T09:42:09.857Z,5.71
2023-11-07T09:43:13.618Z,5.71
2023-11-07T09:44:15.976Z,5.70
2023-11-07T09:45:22.469Z,5.70
2023-11-07T09:46:26.009Z,5.70
2023-11-07T09:47:30.285Z,5.71
2023-11-07T09:48:32.268Z,5.73
2023-11-07T09:49:35.030Z,5.71
2023-11-07T09:50:42.913Z,5.70
2023-11-07T09:51:48.350Z,5.70
2023-11-07T09:52:52.643Z,5.70
2023-11-07T09:53:57.936Z,5.69
2023-11-07T09:55:02.288Z,5.69
2023-11-07T09:56:06.960Z,5.68
2023-11-07T09:57:10.353Z,5.66
2023-11-07T09:58:21.288Z,5.65
2023-11-07T09:59:39.514Z,5.66
2023-11-07T10:00:45.419Z,5.66
2023-11-07T10:01:49.165Z,5.65
2023-11-07T10:02:51.653Z,5.67
2023-11-07T10:03:54.259Z,5.69
2023-11-07T10:04:57.343Z,5.69
2023-11-07T10:06:00.427Z,5.69
2023-11-07T10:07:02.433Z,5.69
2023-11-07T10:08:04.739Z,5.69
2023-11-07T10:09:06.789Z,5.68
2023-11-07T10:10:11.887Z,5.70
2023-11-07T10:11:15.603Z,5.71
2023-11-07T10:12:18.844Z,5.70
2023-11-07T10:13:20.894Z,5.71
2023-11-07T10:14:23.268Z,5.69
2023-11-07T10:15:26.412Z,5.72
2023-11-07T10:16:39.906Z,5.73
2023-11-07T10:17:42.781Z,5.70
2023-11-07T10:18:50.331Z,5.72
2023-11-07T10:20:06.970Z,5.73
2023-11-07T10:21:09.723Z,5.73
2023-11-07T10:22:11.657Z,5.72
2023-11-07T10:23:13.999Z,5.72
2023-11-07T10:24:18.202Z,5.72
2023-11-07T10:25:37.654Z,5.72
2023-11-07T10:27:00.768Z,5.72
2023-11-07T10:28:05.453Z,5.69
2023-11-07T10:29:19.173Z,5.73
2023-11-07T10:30:22.504Z,5.70
2023-11-07T10:31:25.038Z,5.67
2023-11-07T10:32:27.292Z,5.68
2023-11-07T10:33:33.959Z,5.66
2023-11-07T10:34:37.515Z,5.66
2023-11-07T10:35:55.611Z,5.66
2023-11-07T10:37:00.644Z,5.66
2023-11-07T10:38:13.754Z,5.67
2023-11-07T10:39:18.988Z,5.68
2023-11-07T10:40:21.851Z,5.67
2023-11-07T10:41:27.982Z,5.69
2023-11-07T10:42:32.432Z,5.69
2023-11-07T10:43:36.679Z,5.70
2023-11-07T10:44:38.975Z,5.71
2023-11-07T10:45:42.758Z,5.71
2023-11-07T10:46:45.945Z,5.72
2023-11-07T10:47:50.303Z,5.73
2023-11-07T10:48:55.125Z,5.75
2023-11-07T10:49:59.555Z,5.73
2023-11-07T10:51:05.502Z,5.75
2023-11-07T10:52:07.991Z,5.75
2023-11-07T10:53:10.074Z,5.72
2023-11-07T10:54:13.870Z,5.71
2023-11-07T10:55:16.543Z,5.73
2023-11-07T10:56:22.365Z,5.73
2023-11-07T10:57:32.650Z,5.74
2023-11-07T10:58:37.397Z,5.74
2023-11-07T10:59:48.122Z,5.73
2023-11-07T11:00:51.719Z,5.72
2023-11-07T11:01:55.954Z,5.71
2023-11-07T11:02:58.842Z,5.75
2023-11-07T11:04:01.591Z,5.75
2023-11-07T11:05:03.808Z,5.72
2023-11-07T11:06:07.822Z,5.71
2023-11-07T11:07:11.443Z,5.70
2023-11-07T11:08:17.500Z,5.69
2023-11-07T11:09:25.371Z,5.69
2023-11-07T11:10:29.412Z,5.67
2023-11-07T11:11:32.758Z,5.72
2023-11-07T11:12:38.112Z,5.70
2023-11-07T11:13:43.222Z,5.68
2023-11-07T11:14:47.161Z,5.67
2023-11-07T11:15:49.631Z,5.69
2023-11-07T11:16:53.148Z,5.66
2023-11-07T11:18:07.138Z,5.66
2023-11-07T11:19:40.024Z,5.66
2023-11-07T11:20:42.103Z,5.65
2023-11-07T11:22:10.530Z,5.66
2023-11-07T11:23:23.115Z,5.67
2023-11-07T11:24:31.063Z,5.65
2023-11-07T11:25:40.200Z,5.65
2023-11-07T11:27:01.761Z,5.68
2023-11-07T11:28:06.852Z,5.66
2023-11-07T11:29:28.440Z,5.68
2023-11-07T11:30:36.383Z,5.68
2023-11-07T11:31:38.497Z,5.67
2023-11-07T11:32:45.182Z,5.69
2023-11-07T11:33:48.191Z,5.68
2023-11-07T11:34:51.341Z,5.69
2023-11-07T11:35:53.656Z,5.68
2023-11-07T11:37:00.989Z,5.68
2023-11-07T11:38:21.210Z,5.69
2023-11-07T11:39:38.681Z,5.68
2023-11-07T11:40:52.740Z,5.66
2023-11-07T11:41:59.121Z,5.65
2023-11-07T11:43:04.619Z,5.66
2023-11-07T11:44:14.560Z,5.66
2023-11-07T11:45:39.958Z,5.65
2023-11-07T11:46:46.766Z,5.64
2023-11-07T11:47:55.642Z,5.64
2023-11-07T11:49:08.901Z,5.62
2023-11-07T11:50:19.306Z,5.63
2023-11-07T11:51:35.199Z,5.65
2023-11-07T11:52:37.720Z,5.66
2023-11-07T11:53:42.094Z,5.63
2023-11-07T11:54:52.422Z,5.62
2023-11-07T11:56:00.239Z,5.63
2023-11-07T11:57:02.595Z,5.62
2023-11-07T11:58:17.987Z,5.63
2023-11-07T11:59:27.421Z,5.61
2023-11-07T12:00:41.273Z,5.63
2023-11-07T12:02:02.334Z,5.64
2023-11-07T12:03:17.723Z,5.63
2023-11-07T12:04:42.650Z,5.64
2023-11-07T12:06:10.295Z,5.62
2023-11-07T12:07:15.815Z,5.61
2023-11-07T12:08:33.976Z,5.62
2023-11-07T12:09:36.558Z,5.60
2023-11-07T12:11:05.565Z,5.62
2023-11-07T12:12:11.955Z,5.60
2023-11-07T12:13:14.606Z,5.60
2023-11-07T12:14:18.430Z,5.62
2023-11-07T12:15:26.292Z,5.61
2023-11-07T12:16:28.440Z,5.61
2023-11-07T12:17:44.360Z,5.63
2023-11-07T12:18:49.458Z,5.62
2023-11-07T12:20:08.101Z,5.61
2023-11-07T12:21:10.661Z,5.60
2023-11-07T12:22:12.740Z,5.60
2023-11-07T12:23:16.890Z,5.60
2023-11-07T12:24:21.312Z,5.60
2023-11-07T12:25:23.519Z,5.59
2023-11-07T12:26:40.291Z,5.61
2023-11-07T12:27:43.199Z,5.59
2023-11-07T12:28:45.760Z,5.60
2023-11-07T12:29:47.960Z,5.58
2023-11-07T12:30:57.194Z,5.58
2023-11-07T12:31:59.310Z,5.58
2023-11-07T12:33:15.809Z,5.58
2023-11-07T12:34:29.835Z,5.62
2023-11-07T12:35:32.413Z,5.57
2023-11-07T12:36:39.556Z,5.57
2023-11-07T12:37:41.812Z,5.56
2023-11-07T12:38:44.415Z,5.56
2023-11-07T12:39:49.708Z,5.56
2023-11-07T12:40:51.961Z,5.56
2023-11-07T12:41:53.997Z,5.56
2023-11-07T12:42:57.659Z,5.55
2023-11-07T12:44:15.514Z,5.55
2023-11-07T12:45:20.468Z,5.54
2023-11-07T12:46:24.666Z,5.53
2023-11-07T12:47:26.788Z,5.54
2023-11-07T12:48:29.201Z,5.54
2023-11-07T12:49:37.671Z,5.54
2023-11-07T12:50:46.253Z,5.54
2023-11-07T12:51:49.225Z,5.55
2023-11-07T12:53:06.718Z,5.55
2023-11-07T12:54:08.910Z,5.55
2023-11-07T12:55:27.994Z,5.54
2023-11-07T12:56:30.138Z,5.53
2023-11-07T12:57:38.099Z,5.53
2023-11-07T12:58:40.421Z,5.53
2023-11-07T13:00:00.082Z,5.55
2023-11-07T13:01:05.965Z,5.56
2023-11-07T13:02:08.120Z,5.54
2023-11-07T13:03:11.631Z,5.54
2023-11-07T13:04:19.112Z,5.52
2023-11-07T13:05:21.717Z,5.52
2023-11-07T13:06:24.022Z,5.51
2023-11-07T13:07:29.073Z,5.52
2023-11-07T13:08:34.182Z,5.52
2023-11-07T13:09:36.451Z,5.51
2023-11-07T13:10:39.248Z,5.51
2023-11-07T13:11:42.164Z,5.52
2023-11-07T13:12:45.782Z,5.52
2023-11-07T13:13:48.866Z,5.51
2023-11-07T13:14:50.914Z,5.51
2023-11-07T13:15:53.011Z,5.51
2023-11-07T13:16:55.119Z,5.52
2023-11-07T13:18:00.472Z,5.51
2023-11-07T13:19:02.744Z,5.51
2023-11-07T13:20:14.892Z,5.52
2023-11-07T13:21:21.549Z,5.52
2023-11-07T13:22:24.865Z,5.52
2023-11-07T13:23:26.884Z,5.51
2023-11-07T13:24:29.034Z,5.52
2023-11-07T13:25:31.127Z,5.52
2023-11-07T13:26:33.312Z,5.52
2023-11-07T13:27:35.458Z,5.52
2023-11-07T13:28:38.529Z,5.52
2023-11-07T13:29:40.460Z,5.51
2023-11-07T13:30:43.056Z,5.50
2023-11-07T13:31:45.657Z,5.51
2023-11-07T13:32:47.782Z,5.51
2023-11-07T13:33:50.148Z,5.50
2023-11-07T13:34:52.647Z,5.51
2023-11-07T13:35:54.890Z,5.51
2023-11-07T13:36:56.937Z,5.51
2023-11-07T13:38:18.388Z,5.50
2023-11-07T13:39:26.400Z,5.52
2023-11-07T13:40:28.509Z,5.51
2023-11-07T13:41:30.599Z,5.51
2023-11-07T13:42:32.642Z,5.51
2023-11-07T13:43:35.818Z,5.51
2023-11-07T13:44:38.002Z,5.52
2023-11-07T13:45:40.310Z,5.52
2023-11-07T13:46:42.527Z,5.52
2023-11-07T13:47:45.703Z,5.53
2023-11-07T13:48:51.798Z,5.53
2023-11-07T13:49:54.329Z,5.53
2023-11-07T13:50:56.389Z,5.52
2023-11-07T13:51:58.575Z,5.53
2023-11-07T13:53:00.685Z,5.53
2023-11-07T13:54:05.326Z,5.54
2023-11-07T13:55:07.780Z,5.56
2023-11-07T13:56:15.619Z,5.57
2023-11-07T13:57:17.767Z,5.58
2023-11-07T13:58:20.091Z,5.59
2023-11-07T13:59:22.227Z,5.57
2023-11-07T14:00:25.129Z,5.57
2023-11-07T14:01:27.108Z,5.57
2023-11-07T14:02:30.231Z,5.59
2023-11-07T14:03:32.277Z,5.59
2023-11-07T14:04:35.410Z,5.59
2023-11-07T14:05:37.587Z,5.60
2023-11-07T14:06:39.910Z,5.59
2023-11-07T14:07:42.463Z,5.58
2023-11-07T14:08:44.719Z,5.58
2023-11-07T14:09:46.722Z,5.58
2023-11-07T14:10:57.183Z,5.59
2023-11-07T14:11:59.099Z,5.61
2023-11-07T14:13:01.886Z,5.59